Time;durP1;ratioP1;P1;durP2;ratioP2;P2;SDS_P1;SDS_P2;PMS_P1;PMS_P2;Temp;Humidity;BMP_temperature;BMP_pressure;BME280_temperature;BME280_humidity;BME280_pressure;Samples;Min_cycle;Max_cycle;Signal;HPM_P1;HPM_P2
2021/01/23 00:00:31;;;;;;;;;;;;;;;2.88;100.00;101094.53;1805477;78;20127;-39
2021/01/23 00:03:03;;;;;;;;;;;;;;;2.89;100.00;101091.11;1804145;79;20941;-39
2021/01/23 00:05:32;;;;;;;;;;;;;;;2.91;100.00;101088.11;1811862;78;20451;-41
2021/01/23 00:08:02;;;;;;;;;;;;;;;2.92;100.00;101095.03;1810887;78;20155;-41
2021/01/23 00:10:30;;;;;;;;;;;;;;;2.90;100.00;101088.53;1803819;78;20155;-40
2021/01/23 00:12:58;;;;;;;;;;;;;;;2.88;100.00;101085.05;1804154;79;20436;-40
2021/01/23 00:15:26;;;;;;;;;;;;;;;2.86;100.00;101081.55;1803736;80;20479;-40
2021/01/23 00:17:54;;;;;;;;;;;;;;;2.87;100.00;101080.71;1803725;80;20257;-40
2021/01/23 00:20:23;;;;;;;;;;;;;;;2.90;100.00;101082.47;1805849;78;20180;-43
2021/01/23 00:22:50;;;;;;;;;;;;;;;2.91;100.00;101082.52;1803864;79;20129;-40
2021/01/23 00:25:18;;;;;;;;;;;;;;;2.95;100.00;101085.64;1807855;78;20306;-40
2021/01/23 00:27:46;;;;;;;;;;;;;;;3.03;100.00;101083.17;1836588;78;20176;-39
2021/01/23 00:30:16;;;;;;;;;;;;;;;3.06;100.00;101070.30;1836630;78;20223;-40
2021/01/23 00:32:43;;;;;;;;;;;;;;;3.10;100.00;101082.45;1836856;78;20195;-39
2021/01/23 00:35:13;;;;;;;;;;;;;;;3.13;100.00;101085.99;1836960;78;20172;-40
2021/01/23 00:37:41;;;;;;;;;;;;;;;3.14;100.00;101088.16;1818072;78;20158;-40
2021/01/23 00:40:10;;;;;;;;;;;;;;;3.17;100.00;101081.73;1804146;80;20178;-40
2021/01/23 00:42:37;;;;;;;;;;;;;;;3.14;100.00;101086.45;1804097;80;20745;-41
2021/01/23 00:45:10;;;;;;;;;;;;;;;3.14;100.00;101076.09;1803866;80;20214;-39
2021/01/23 00:47:38;;;;;;;;;;;;;;;3.15;100.00;101083.44;1803858;80;20198;-39
2021/01/23 00:50:07;;;;;;;;;;;;;;;3.14;100.00;101085.58;1804078;80;20499;-38
2021/01/23 00:52:36;;;;;;;;;;;;;;;3.13;100.00;101082.53;1803948;80;20190;-40
2021/01/23 00:55:05;;;;;;;;;;;;;;;3.15;100.00;101078.26;1804078;79;20432;-39
2021/01/23 00:57:34;;;;;;;;;;;;;;;3.15;100.00;101089.92;1803900;80;20147;-40
2021/01/23 01:00:06;;;;;;;;;;;;;;;3.16;100.00;101092.51;1804060;80;20178;-38
2021/01/23 01:02:37;;;;;;;;;;;;;;;3.15;100.00;101084.28;1803957;80;20416;-40
2021/01/23 01:05:08;;;;;;;;;;;;;;;3.14;100.00;101082.56;1804098;80;20167;-39
2021/01/23 01:07:36;;;;;;;;;;;;;;;3.12;100.00;101080.77;1804158;80;20155;-40
2021/01/23 01:10:06;;;;;;;;;;;;;;;3.12;100.00;101088.55;1803921;79;20408;-41
2021/01/23 01:12:34;;;;;;;;;;;;;;;3.12;100.00;101076.89;1804058;80;20150;-41
2021/01/23 01:15:04;;;;;;;;;;;;;;;3.11;100.00;101081.19;1818609;78;20152;-40
2021/01/23 01:17:32;;;;;;;;;;;;;;;3.09;100.00;101075.09;1803865;79;20129;-39
2021/01/23 01:20:00;;;;;;;;;;;;;;;3.09;100.00;101071.63;1804020;80;20153;-40
2021/01/23 01:22:29;;;;;;;;;;;;;;;3.10;100.00;101086.34;1804234;79;20135;-40
2021/01/23 01:24:57;;;;;;;;;;;;;;;3.07;100.00;101085.00;1805602;78;20145;-41
2021/01/23 01:27:25;;;;;;;;;;;;;;;3.05;100.00;101083.66;1803806;80;20125;-42
2021/01/23 01:29:53;;;;;;;;;;;;;;;3.04;100.00;101071.55;1804005;80;20201;-39
2021/01/23 01:32:21;;;;;;;;;;;;;;;3.06;100.00;101072.89;1804071;80;20141;-39
2021/01/23 01:34:49;;;;;;;;;;;;;;;3.07;100.00;101070.75;1804088;79;20145;-39
2021/01/23 01:37:17;;;;;;;;;;;;;;;3.07;100.00;101065.57;1804106;78;20186;-40
2021/01/23 01:39:45;;;;;;;;;;;;;;;3.06;100.00;101067.29;1803419;78;20139;-41
2021/01/23 01:42:12;;;;;;;;;;;;;;;3.07;100.00;101055.21;1803963;80;20175;-42
2021/01/23 01:44:41;;;;;;;;;;;;;;;3.07;100.00;101057.38;1829234;78;20141;-41
2021/01/23 01:47:09;;;;;;;;;;;;;;;3.06;100.00;101072.89;1829354;78;20224;-41
2021/01/23 01:49:37;;;;;;;;;;;;;;;3.04;100.00;101071.55;1829438;78;20410;-39
2021/01/23 01:52:05;;;;;;;;;;;;;;;3.07;100.00;101080.69;1852198;77;20162;-40
2021/01/23 01:54:34;;;;;;;;;;;;;;;3.09;100.00;101075.52;1862938;77;20135;-41
2021/01/23 01:57:01;;;;;;;;;;;;;;;3.10;100.00;101066.91;1862873;77;20134;-40
2021/01/23 01:59:29;;;;;;;;;;;;;;;3.11;100.00;101071.25;1862768;77;20139;-40
2021/01/23 02:02:26;;;;;;;;;;;;;;;3.10;100.00;101069.50;1863115;77;20150;-40
2021/01/23 02:05:07;;;;;;;;;;;;;;;3.07;100.00;101070.75;1862891;77;20186;-41
2021/01/23 02:08:01;;;;;;;;;;;;;;;3.01;100.00;101067.63;1863017;77;20567;-40
2021/01/23 02:10:50;;;;;;;;;;;;;;;3.00;100.00;101067.59;1847820;77;20137;-41
2021/01/23 02:13:33;;;;;;;;;;;;;;;3.02;100.00;101063.32;1828736;78;20173;-40
2021/01/23 02:16:08;;;;;;;;;;;;;;;3.04;100.00;101068.09;1796999;80;20207;-40
2021/01/23 02:18:42;;;;;;;;;;;;;;;3.04;100.00;101061.61;1829809;77;20183;-39
2021/01/23 02:21:32;;;;;;;;;;;;;;;3.06;100.00;101065.11;1805769;78;20172;-40
2021/01/23 02:27:05;;;;;;;;;;;;;;;3.10;100.00;101065.20;1914202;74;20157;-40
2021/01/23 02:30:02;;;;;;;;;;;;;;;3.02;100.00;101061.58;1892961;75;20128;-40
2021/01/23 02:32:31;;;;;;;;;;;;;;;3.00;100.00;101061.98;1867747;77;20134;-39
2021/01/23 02:35:00;;;;;;;;;;;;;;;2.97;100.00;101067.51;1867938;77;20198;-39
2021/01/23 02:37:28;;;;;;;;;;;;;;;2.98;100.00;101064.08;1868078;77;20174;-40
2021/01/23 02:39:56;;;;;;;;;;;;;;;2.98;100.00;101071.85;1867775;77;20182;-41
2021/01/23 02:42:24;;;;;;;;;;;;;;;2.99;100.00;101067.13;1867958;77;20194;-40
2021/01/23 02:44:52;;;;;;;;;;;;;;;3.00;100.00;101068.88;1868024;77;20135;-40
2021/01/23 02:47:20;;;;;;;;;;;;;;;3.01;100.00;101062.86;1868175;77;20193;-40
2021/01/23 02:49:49;;;;;;;;;;;;;;;3.04;100.00;101069.38;1867926;77;20186;-40
2021/01/23 02:52:35;;;;;;;;;;;;;;;3.05;100.00;101068.13;1868050;77;20158;-39
2021/01/23 02:55:09;;;;;;;;;;;;;;;3.07;100.00;101065.57;1867897;77;20261;-40
2021/01/23 02:57:40;;;;;;;;;;;;;;;3.06;100.00;101064.70;1867971;77;20464;-41
2021/01/23 03:00:09;;;;;;;;;;;;;;;3.06;100.00;101067.29;1867925;77;20170;-39
2021/01/23 03:02:38;;;;;;;;;;;;;;;3.07;100.00;101075.93;1867867;77;20122;-39
2021/01/23 03:05:07;;;;;;;;;;;;;;;3.07;100.00;101071.63;1835250;77;20126;-40
2021/01/23 03:07:35;;;;;;;;;;;;;;;3.09;100.00;101071.63;1867858;77;20193;-40
2021/01/23 03:10:07;;;;;;;;;;;;;;;3.08;100.00;101068.62;1868242;77;20535;-40
2021/01/23 03:12:35;;;;;;;;;;;;;;;3.07;100.00;101067.74;1867964;77;20266;-43
2021/01/23 03:15:04;;;;;;;;;;;;;;;3.08;100.00;101069.91;1867881;77;20193;-41
2021/01/23 03:17:32;;;;;;;;;;;;;;;3.08;100.00;101064.31;1868038;77;20424;-40
2021/01/23 03:20:00;;;;;;;;;;;;;;;3.09;100.00;101062.15;1867774;77;20241;-39
2021/01/23 03:22:29;;;;;;;;;;;;;;;3.10;100.00;101057.84;1867987;77;20393;-39
2021/01/23 03:24:57;;;;;;;;;;;;;;;3.11;100.00;101069.95;1867861;77;20142;-40
2021/01/23 03:27:24;;;;;;;;;;;;;;;3.13;100.00;101061.38;1867882;77;20186;-40
2021/01/23 03:29:52;;;;;;;;;;;;;;;3.16;100.00;101070.48;1867891;77;20185;-40
2021/01/23 03:32:20;;;;;;;;;;;;;;;3.17;100.00;101072.66;1887189;75;20143;-40
2021/01/23 03:34:48;;;;;;;;;;;;;;;3.15;100.00;101060.13;1903220;75;20176;-40
2021/01/23 03:37:16;;;;;;;;;;;;;;;3.16;100.00;101069.61;1902796;75;20199;-40
2021/01/23 03:39:44;;;;;;;;;;;;;;;3.17;100.00;101067.48;1902473;75;20136;-39
2021/01/23 03:42:12;;;;;;;;;;;;;;;3.20;100.00;101072.31;1902370;75;20132;-40
2021/01/23 03:44:41;;;;;;;;;;;;;;;3.20;100.00;101071.02;1902203;75;20164;-39
2021/01/23 03:47:09;;;;;;;;;;;;;;;3.19;100.00;101071.86;1902304;75;20120;-41
2021/01/23 03:49:37;;;;;;;;;;;;;;;3.20;100.00;101064.55;1902543;75;20219;-41
2021/01/23 03:52:05;;;;;;;;;;;;;;;3.21;100.00;101073.19;1902652;75;20120;-41
2021/01/23 03:54:33;;;;;;;;;;;;;;;3.21;100.00;101074.48;1902299;75;20262;-41
2021/01/23 03:57:00;;;;;;;;;;;;;;;3.20;100.00;101074.03;1902323;75;20120;-39
2021/01/23 03:59:28;;;;;;;;;;;;;;;3.19;100.00;101069.27;1877810;75;20164;-39
2021/01/23 04:01:56;;;;;;;;;;;;;;;3.18;100.00;101073.99;1867597;77;20149;-40
2021/01/23 04:04:24;;;;;;;;;;;;;;;3.17;100.00;101071.37;1867276;76;20203;-41
2021/01/23 04:06:51;;;;;;;;;;;;;;;3.14;100.00;101076.51;1867386;77;20144;-41
2021/01/23 04:09:19;;;;;;;;;;;;;;;3.11;100.00;101067.36;1829543;78;20148;-40
2021/01/23 04:11:47;;;;;;;;;;;;;;;3.08;100.00;101078.98;1812456;78;20277;-40
2021/01/23 04:14:14;;;;;;;;;;;;;;;3.07;100.00;101075.93;1797013;80;20284;-39
2021/01/23 04:16:47;;;;;;;;;;;;;;;3.04;100.00;101072.84;1796881;80;20201;-40
2021/01/23 04:19:15;;;;;;;;;;;;;;;3.04;100.00;101070.26;1796462;80;20503;-39
2021/01/23 04:21:43;;;;;;;;;;;;;;;3.07;100.00;101070.33;1795221;80;20278;-41
2021/01/23 04:24:11;;;;;;;;;;;;;;;3.10;100.00;101064.31;1795386;78;20210;-41
2021/01/23 04:26:39;;;;;;;;;;;;;;;3.09;100.00;101068.63;1799124;78;20238;-40
2021/01/23 04:29:07;;;;;;;;;;;;;;;3.09;100.00;101078.11;1837540;77;20152;-41
2021/01/23 04:31:36;;;;;;;;;;;;;;;3.09;100.00;101076.81;1825456;78;20502;-41
2021/01/23 04:34:03;;;;;;;;;;;;;;;3.09;100.00;101069.92;1819765;78;20184;-40
2021/01/23 04:36:32;;;;;;;;;;;;;;;3.12;100.00;101071.70;1829509;78;20144;-41
2021/01/23 04:38:59;;;;;;;;;;;;;;;3.14;100.00;101072.62;1820567;78;20169;-41
2021/01/23 04:41:29;;;;;;;;;;;;;;;3.14;100.00;101075.21;1816972;78;20488;-40
2021/01/23 04:43:57;;;;;;;;;;;;;;;3.16;100.00;101073.08;1815595;78;20206;-40
2021/01/23 04:46:25;;;;;;;;;;;;;;;3.16;100.00;101074.80;1831129;77;20133;-40
2021/01/23 04:48:52;;;;;;;;;;;;;;;3.14;100.00;101076.51;1810352;78;20210;-39
2021/01/23 04:51:20;;;;;;;;;;;;;;;3.14;100.00;101070.91;1797906;78;20152;-40
2021/01/23 04:53:48;;;;;;;;;;;;;;;3.13;100.00;101072.16;1829626;78;20415;-41
2021/01/23 04:56:16;;;;;;;;;;;;;;;3.11;100.00;101072.13;1829112;78;20137;-40
2021/01/23 04:58:44;;;;;;;;;;;;;;;3.09;100.00;101071.63;1806956;78;20314;-43
2021/01/23 05:01:15;;;;;;;;;;;;;;;3.06;100.00;101077.65;1795558;78;20127;-42
2021/01/23 05:04:00;;;;;;;;;;;;;;;3.06;100.00;101089.30;1813407;78;20228;-40
2021/01/23 05:06:30;;;;;;;;;;;;;;;3.07;100.00;101085.00;1815680;77;20165;-41
2021/01/23 05:08:58;;;;;;;;;;;;;;;3.08;100.00;101084.16;1807003;79;20278;-42
2021/01/23 05:11:46;;;;;;;;;;;;;;;3.07;100.00;101084.58;1814437;78;20128;-41
2021/01/23 05:14:15;;;;;;;;;;;;;;;3.07;100.00;101083.70;1827859;78;20139;-41
2021/01/23 05:16:42;;;;;;;;;;;;;;;3.06;100.00;101080.23;1825304;78;20182;-41
2021/01/23 05:19:10;;;;;;;;;;;;;;;3.07;100.00;101079.81;1846979;77;20163;-41
2021/01/23 05:21:39;;;;;;;;;;;;;;;3.10;100.00;101086.34;1818549;77;20306;-41
2021/01/23 05:24:12;;;;;;;;;;;;;;;3.11;100.00;101081.61;1794330;78;20274;-41
2021/01/23 05:26:40;;;;;;;;;;;;;;;3.12;100.00;101089.42;1823452;78;20137;-40
2021/01/23 05:29:11;;;;;;;;;;;;;;;3.15;100.00;101084.73;1854448;77;20135;-43
2021/01/23 05:31:40;;;;;;;;;;;;;;;3.15;100.00;101084.73;1833549;77;20139;-43
2021/01/23 05:34:30;;;;;;;;;;;;;;;3.19;100.00;101087.83;1847783;77;20422;-41
2021/01/23 05:36:58;;;;;;;;;;;;;;;3.22;100.00;101085.73;1845025;77;20176;-39
2021/01/23 05:39:45;;;;;;;;;;;;;;;3.23;100.00;101080.97;1835724;77;20121;-41
2021/01/23 05:42:13;;;;;;;;;;;;;;;3.25;100.00;101080.58;1841210;77;20426;-40
2021/01/23 05:44:41;;;;;;;;;;;;;;;3.26;100.00;101080.63;1852426;77;20138;-41
2021/01/23 05:47:25;;;;;;;;;;;;;;;3.26;100.00;101085.80;1866372;77;20182;-40
2021/01/23 05:49:54;;;;;;;;;;;;;;;3.25;100.00;101084.05;1866402;77;20126;-45
2021/01/23 05:52:22;;;;;;;;;;;;;;;3.25;100.00;101085.77;1866192;77;20131;-41
2021/01/23 05:54:51;;;;;;;;;;;;;;;3.25;100.00;101079.29;1866144;77;20158;-40
2021/01/23 05:57:19;;;;;;;;;;;;;;;3.25;100.00;101077.58;1836745;77;21035;-40
2021/01/23 05:59:46;;;;;;;;;;;;;;;3.27;100.00;101078.48;1848068;77;20170;-41
2021/01/23 06:02:14;;;;;;;;;;;;;;;3.29;100.00;101072.89;1838512;77;20179;-41
2021/01/23 06:04:42;;;;;;;;;;;;;;;3.31;100.00;101072.92;1835403;77;20826;-41
2021/01/23 06:07:10;;;;;;;;;;;;;;;3.33;100.00;101066.06;1832562;78;20390;-41
2021/01/23 06:09:39;;;;;;;;;;;;;;;3.36;100.00;101067.40;1832372;78;20161;-41
2021/01/23 06:12:32;;;;;;;;;;;;;;;3.39;100.00;101069.64;1832125;77;20164;-41
2021/01/23 06:15:01;;;;;;;;;;;;;;;3.43;100.00;101070.55;1766985;80;20329;-41
2021/01/23 06:17:46;;;;;;;;;;;;;;;3.45;100.00;101069.75;1800282;78;20137;-40
2021/01/23 06:20:43;;;;;;;;;;;;;;;3.49;100.00;101070.66;1825413;78;20168;-41
2021/01/23 06:26:56;;;;;;;;;;;;;;;3.60;100.00;101057.06;1916484;74;20229;-41
2021/01/23 06:29:39;;;;;;;;;;;;;;;3.56;100.00;101056.97;1853875;75;20220;-41
2021/01/23 06:32:16;;;;;;;;;;;;;;;3.55;100.00;101061.27;1878521;75;20224;-41
2021/01/23 06:34:54;;;;;;;;;;;;;;;3.58;100.00;101059.17;1867472;77;20126;-41
2021/01/23 06:37:29;;;;;;;;;;;;;;;3.61;100.00;101056.61;1868036;77;20141;-41
2021/01/23 06:39:59;;;;;;;;;;;;;;;3.64;100.00;101056.68;1867804;75;20383;-41
2021/01/23 06:42:28;;;;;;;;;;;;;;;3.67;100.00;101051.56;1867955;75;20144;-41
2021/01/23 06:44:55;;;;;;;;;;;;;;;3.71;100.00;101051.17;1830388;77;20486;-41
2021/01/23 06:47:23;;;;;;;;;;;;;;;3.71;100.00;101049.88;1829837;78;20248;-42
2021/01/23 06:49:51;;;;;;;;;;;;;;;3.75;100.00;101054.26;1806111;78;20124;-44
2021/01/23 06:52:19;;;;;;;;;;;;;;;3.78;100.00;101053.02;1829757;78;20236;-42
2021/01/23 06:54:46;;;;;;;;;;;;;;;3.80;100.00;101055.23;1823913;78;20172;-41
2021/01/23 06:57:14;;;;;;;;;;;;;;;3.83;100.00;101056.56;1793345;79;20135;-40
2021/01/23 06:59:42;;;;;;;;;;;;;;;3.91;100.00;101058.44;1811995;78;20243;-43
2021/01/23 07:02:13;;;;;;;;;;;;;;;4.01;100.00;101059.44;1820706;78;20129;-42
2021/01/23 07:04:45;;;;;;;;;;;;;;;4.11;100.00;101063.94;1806494;78;20533;-41
2021/01/23 07:07:13;;;;;;;;;;;;;;;4.25;100.00;101061.13;1842703;77;20474;-42
2021/01/23 07:09:48;;;;;;;;;;;;;;;4.39;100.00;101047.93;1806307;78;20228;-42
2021/01/23 07:12:36;;;;;;;;;;;;;;;4.51;100.00;101048.94;1800638;78;20463;-42
2021/01/23 07:15:26;;;;;;;;;;;;;;;4.61;100.00;101055.56;1810180;78;20163;-42
2021/01/23 07:17:53;;;;;;;;;;;;;;;4.79;100.00;101051.89;1809638;78;20235;-41
2021/01/23 07:20:21;;;;;;;;;;;;;;;5.16;100.00;101054.94;1834757;77;20254;-42
2021/01/23 07:22:49;;;;;;;;;;;;;;;5.34;100.00;101051.22;1829466;78;20228;-43
2021/01/23 07:25:17;;;;;;;;;;;;;;;5.49;100.00;101051.81;1812033;77;20184;-42
2021/01/23 07:27:44;;;;;;;;;;;;;;;5.58;100.00;101060.55;1827020;78;20180;-41
2021/01/23 07:30:17;;;;;;;;;;;;;;;5.71;100.00;101056.79;1822117;77;20204;-42
2021/01/23 07:32:46;;;;;;;;;;;;;;;5.99;100.00;101059.64;1820433;77;20238;-42
2021/01/23 07:35:15;;;;;;;;;;;;;;;6.29;98.58;101058.14;1824487;78;20129;-42
2021/01/23 07:37:48;;;;;;;;;;;;;;;6.55;96.71;101066.97;1801118;77;20471;-42
2021/01/23 07:40:26;;;;;;;;;;;;;;;6.79;94.01;101065.78;1836679;77;20128;-42
2021/01/23 07:42:57;;;;;;;;;;;;;;;6.95;90.98;101063.26;1833576;77;20193;-41
2021/01/23 07:45:25;;;;;;;;;;;;;;;7.04;89.20;101055.45;1829306;77;20133;-42
2021/01/23 07:47:57;;;;;;;;;;;;;;;7.08;88.20;101052.88;1832545;77;20184;-41
2021/01/23 07:50:26;;;;;;;;;;;;;;;7.30;87.89;101060.30;1828645;77;20568;-41
2021/01/23 07:52:54;;;;;;;;;;;;;;;7.53;87.01;101059.94;1829252;77;20151;-42
2021/01/23 07:55:25;;;;;;;;;;;;;;;7.74;85.92;101055.61;1817763;78;20143;-42
2021/01/23 07:58:05;;;;;;;;;;;;;;;7.86;84.18;101053.00;1818869;77;20312;-42
2021/01/23 08:00:33;;;;;;;;;;;;;;;7.88;82.64;101049.93;1804812;78;20179;-43
2021/01/23 08:03:02;;;;;;;;;;;;;;;7.86;82.23;101046.04;1835556;77;20180;-45
2021/01/23 08:05:49;;;;;;;;;;;;;;;7.92;81.40;101048.64;1837533;77;20677;-41
2021/01/23 08:08:29;;;;;;;;;;;;;;;7.92;81.02;101044.73;1813281;78;20281;-41
2021/01/23 08:10:58;;;;;;;;;;;;;;;7.98;80.69;101045.16;1816991;78;20463;-43
2021/01/23 08:13:27;;;;;;;;;;;;;;;7.95;80.27;101036.01;1803997;78;20161;-41
2021/01/23 08:16:16;;;;;;;;;;;;;;;7.95;80.23;101036.01;1809691;78;20424;-40
2021/01/23 08:18:44;;;;;;;;;;;;;;;8.01;80.18;101036.00;1808443;78;20169;-41
2021/01/23 08:21:19;;;;;;;;;;;;;;;8.10;79.66;101033.39;1805762;78;20234;-42
2021/01/23 08:23:49;;;;;;;;;;;;;;;8.14;79.25;101029.89;1803515;78;20184;-42
2021/01/23 08:26:18;;;;;;;;;;;;;;;8.17;79.08;101032.52;1809274;78;20285;-42
2021/01/23 08:28:48;;;;;;;;;;;;;;;8.23;78.59;101029.89;1815235;78;20428;-42
2021/01/23 08:31:19;;;;;;;;;;;;;;;8.33;78.32;101026.87;1807259;78;20196;-41
2021/01/23 08:33:55;;;;;;;;;;;;;;;8.37;77.79;101029.89;1818326;78;20207;-42
2021/01/23 08:36:24;;;;;;;;;;;;;;;8.36;77.93;101026.41;1829636;77;20204;-42
2021/01/23 08:39:04;;;;;;;;;;;;;;;8.38;78.06;101027.72;1828701;77;20122;-41
2021/01/23 08:41:28;;;;;;;;;;;;;;;8.47;77.92;101027.68;1828052;78;20397;-43
2021/01/23 08:43:56;;;;;;;;;;;;;;;8.43;77.50;101029.87;1827349;78;20224;-41
2021/01/23 08:46:24;;;;;;;;;;;;;;;8.55;77.56;101019.82;1824183;77;20224;-49
2021/01/23 08:48:55;;;;;;;;;;;;;;;8.56;77.08;101022.44;1830773;77;20288;-42
2021/01/23 08:51:22;;;;;;;;;;;;;;;8.48;76.89;101015.48;1830694;77;20183;-42
2021/01/23 08:53:50;;;;;;;;;;;;;;;8.28;77.30;101008.54;1827028;77;20180;-41
2021/01/23 08:56:20;;;;;;;;;;;;;;;8.05;77.71;101008.16;1822508;77;20199;-40
2021/01/23 08:58:48;;;;;;;;;;;;;;;7.79;78.55;101013.41;1821933;77;20230;-42
2021/01/23 09:01:16;;;;;;;;;;;;;;;7.56;79.53;101004.26;1827369;77;20389;-40
2021/01/23 09:03:44;;;;;;;;;;;;;;;7.32;80.49;100999.03;1829328;77;20225;-43
2021/01/23 09:06:12;;;;;;;;;;;;;;;7.11;81.74;100994.64;1830486;77;20178;-39
2021/01/23 09:08:40;;;;;;;;;;;;;;;7.10;82.82;101004.62;1834439;77;20192;-41
2021/01/23 09:11:07;;;;;;;;;;;;;;;7.17;83.43;100999.86;1831956;77;20198;-42
2021/01/23 09:13:35;;;;;;;;;;;;;;;7.28;83.67;100996.86;1857423;77;20302;-40
2021/01/23 09:16:05;;;;;;;;;;;;;;;7.34;83.60;100998.17;1852523;77;20299;-40
2021/01/23 09:18:32;;;;;;;;;;;;;;;7.33;83.81;101000.34;1823477;77;20240;-41
2021/01/23 09:21:01;;;;;;;;;;;;;;;7.30;84.07;100999.45;1801186;78;20192;-40
2021/01/23 09:23:30;;;;;;;;;;;;;;;7.31;84.31;100996.85;1814427;78;20188;-39
2021/01/23 09:26:02;;;;;;;;;;;;;;;7.27;84.34;101004.25;1806023;78;20389;-43
2021/01/23 09:28:30;;;;;;;;;;;;;;;7.13;84.51;100992.48;1830516;77;20196;-41
2021/01/23 09:30:59;;;;;;;;;;;;;;;6.97;84.95;100998.52;1830297;77;20196;-41
2021/01/23 09:33:28;;;;;;;;;;;;;;;6.76;85.70;100994.09;1830238;77;20181;-40
2021/01/23 09:35:55;;;;;;;;;;;;;;;6.60;86.48;101001.86;1832679;77;20155;-40
2021/01/23 09:38:23;;;;;;;;;;;;;;;6.52;87.21;100990.53;1833637;77;20143;-41
2021/01/23 09:40:51;;;;;;;;;;;;;;;6.50;87.86;100984.01;1804590;77;20503;-41
2021/01/23 09:43:19;;;;;;;;;;;;;;;6.52;88.39;100991.83;1807705;78;20283;-40
2021/01/23 09:45:49;;;;;;;;;;;;;;;6.51;88.80;100988.36;1807211;77;20180;-39
2021/01/23 09:48:21;;;;;;;;;;;;;;;6.58;89.31;100991.43;1752590;80;20135;-40
2021/01/23 09:50:49;;;;;;;;;;;;;;;6.69;89.60;100994.97;1797249;79;20526;-41
2021/01/23 09:53:21;;;;;;;;;;;;;;;6.73;89.32;100987.59;1786201;79;20191;-41
2021/01/23 09:55:56;;;;;;;;;;;;;;;6.66;89.25;100997.55;1775118;78;20188;-41
2021/01/23 09:58:31;;;;;;;;;;;;;;;6.57;89.42;100987.51;1762681;78;20231;-41
2021/01/23 10:01:01;;;;;;;;;;;;;;;6.44;89.79;100984.41;1765800;78;20195;-40
2021/01/23 10:03:30;;;;;;;;;;;;;;;6.33;90.19;100987.84;1770390;78;20186;-41
2021/01/23 10:05:58;;;;;;;;;;;;;;;6.26;90.57;100979.99;1807064;78;20266;-42
2021/01/23 10:08:26;;;;;;;;;;;;;;;6.18;90.97;100982.98;1821242;78;20462;-42
2021/01/23 10:10:56;;;;;;;;;;;;;;;6.11;91.51;100975.56;1807146;78;20134;-44
2021/01/23 10:13:23;;;;;;;;;;;;;;;6.06;91.92;100976.41;1809920;78;20183;-42
2021/01/23 10:15:52;;;;;;;;;;;;;;;6.04;92.25;100968.58;1805697;78;20268;-43
2021/01/23 10:18:19;;;;;;;;;;;;;;;6.01;92.69;100971.18;1806434;78;20225;-42
2021/01/23 10:20:48;;;;;;;;;;;;;;;6.04;93.29;100970.34;1808544;78;20495;-43
2021/01/23 10:26:49;;;;;;;;;;;;;;;6.17;93.82;100972.16;1896077;74;20256;-43
2021/01/23 10:29:19;;;;;;;;;;;;;;;6.15;93.92;100963.45;1856948;75;20189;-44
2021/01/23 10:31:46;;;;;;;;;;;;;;;6.15;94.00;100965.63;1877720;75;20130;-41
2021/01/23 10:34:14;;;;;;;;;;;;;;;6.17;94.11;100957.38;1875842;75;20876;-42
2021/01/23 10:36:43;;;;;;;;;;;;;;;6.19;94.16;100959.99;1871520;75;20220;-39
2021/01/23 10:39:11;;;;;;;;;;;;;;;6.18;94.32;100960.84;1868979;75;20160;-41
2021/01/23 10:41:39;;;;;;;;;;;;;;;6.17;94.49;100953.93;1869115;75;20158;-41
2021/01/23 10:44:07;;;;;;;;;;;;;;;6.17;94.60;100957.38;1872037;75;20176;-43
2021/01/23 10:46:35;;;;;;;;;;;;;;;6.20;94.70;100955.23;1873977;75;20435;-42
2021/01/23 10:49:03;;;;;;;;;;;;;;;6.23;94.75;100953.95;1874857;75;20647;-40
2021/01/23 10:51:31;;;;;;;;;;;;;;;6.26;94.70;100951.35;1868595;75;20201;-40
2021/01/23 10:54:00;;;;;;;;;;;;;;;6.27;94.64;100943.55;1875290;75;20207;-43
2021/01/23 10:56:28;;;;;;;;;;;;;;;6.30;94.61;100940.11;1873934;75;20210;-41
2021/01/23 10:59:01;;;;;;;;;;;;;;;6.32;94.50;100947.48;1875456;75;20191;-42
2021/01/23 11:01:29;;;;;;;;;;;;;;;6.32;94.47;100933.16;1863895;75;20282;-43
2021/01/23 11:03:59;;;;;;;;;;;;;;;6.29;94.49;100940.54;1825015;75;20166;-42
2021/01/23 11:06:26;;;;;;;;;;;;;;;6.25;94.49;100936.59;1870447;75;20205;-43
2021/01/23 11:08:54;;;;;;;;;;;;;;;6.21;94.67;100927.91;1870773;75;20201;-41
2021/01/23 11:11:23;;;;;;;;;;;;;;;6.19;94.66;100924.42;1867241;75;20173;-42
2021/01/23 11:13:50;;;;;;;;;;;;;;;6.17;94.86;100928.73;1875078;75;20442;-41
2021/01/23 11:16:19;;;;;;;;;;;;;;;6.17;94.94;100924.83;1872309;75;20197;-43
2021/01/23 11:18:48;;;;;;;;;;;;;;;6.18;94.97;100925.70;1867844;75;20303;-43
2021/01/23 11:21:15;;;;;;;;;;;;;;;6.17;95.04;100921.39;1887097;75;20413;-42
2021/01/23 11:23:43;;;;;;;;;;;;;;;6.22;95.13;100926.18;1867746;75;20198;-40
2021/01/23 11:26:11;;;;;;;;;;;;;;;6.32;95.16;100927.52;1871626;75;20174;-44
2021/01/23 11:28:39;;;;;;;;;;;;;;;6.46;95.12;100918.89;1869712;75;20224;-42
2021/01/23 11:31:07;;;;;;;;;;;;;;;6.59;94.88;100921.97;1875615;75;20413;-43
2021/01/23 11:33:38;;;;;;;;;;;;;;;6.68;94.50;100919.41;1870935;75;20249;-43
2021/01/23 11:36:07;;;;;;;;;;;;;;;6.70;94.08;100918.52;1857010;75;20168;-41
2021/01/23 11:38:35;;;;;;;;;;;;;;;6.72;93.84;100915.93;1875544;75;20191;-43
2021/01/23 11:41:03;;;;;;;;;;;;;;;6.72;93.78;100910.29;1869822;75;20182;-41
2021/01/23 11:43:31;;;;;;;;;;;;;;;6.80;93.77;100913.79;1869573;75;20232;-43
2021/01/23 11:46:00;;;;;;;;;;;;;;;6.91;93.58;100911.62;1868240;75;20189;-43
2021/01/23 11:48:28;;;;;;;;;;;;;;;6.93;93.12;100921.63;1874713;75;20562;-42
2021/01/23 11:50:57;;;;;;;;;;;;;;;6.96;92.85;100921.61;1871792;75;20182;-44
2021/01/23 11:53:26;;;;;;;;;;;;;;;6.94;92.62;100924.24;1872680;75;20212;-43
2021/01/23 11:55:56;;;;;;;;;;;;;;;6.91;92.51;100918.13;1830650;75;20131;-44
2021/01/23 11:58:25;;;;;;;;;;;;;;;6.86;92.45;100919.44;1861989;75;20263;-42
2021/01/23 12:00:54;;;;;;;;;;;;;;;6.80;92.44;100921.61;1822430;75;20314;-43
2021/01/23 12:03:23;;;;;;;;;;;;;;;6.74;92.53;100924.63;1822414;77;20384;-42
2021/01/23 12:05:52;;;;;;;;;;;;;;;6.67;92.60;100921.57;1874459;75;20310;-42
2021/01/23 12:08:20;;;;;;;;;;;;;;;6.62;92.82;100924.60;1870340;75;20193;-43
2021/01/23 12:10:49;;;;;;;;;;;;;;;6.57;93.05;100927.17;1866919;77;20131;-41
2021/01/23 12:13:16;;;;;;;;;;;;;;;6.53;93.33;100925.43;1874012;75;20119;-42
2021/01/23 12:15:44;;;;;;;;;;;;;;;6.50;93.44;100928.01;1870398;75;20479;-42
2021/01/23 12:18:12;;;;;;;;;;;;;;;6.44;93.61;100918.00;1866966;75;20284;-43
2021/01/23 12:20:40;;;;;;;;;;;;;;;6.39;93.95;100922.77;1874206;75;20433;-43
2021/01/23 12:23:08;;;;;;;;;;;;;;;6.36;94.09;100933.62;1871983;75;20176;-43
2021/01/23 12:25:37;;;;;;;;;;;;;;;6.31;94.15;100927.50;1873941;75;20195;-41
2021/01/23 12:28:04;;;;;;;;;;;;;;;6.26;94.34;100931.40;1868931;75;20189;-42
2021/01/23 12:30:32;;;;;;;;;;;;;;;6.21;94.54;100930.52;1866270;76;20156;-41
2021/01/23 12:33:00;;;;;;;;;;;;;;;6.18;94.75;100929.18;1877592;75;20387;-43
2021/01/23 12:35:30;;;;;;;;;;;;;;;6.15;94.82;100938.30;1872823;75;20387;-43
2021/01/23 12:37:58;;;;;;;;;;;;;;;6.12;95.02;100932.19;1867565;75;20190;-42
2021/01/23 12:40:27;;;;;;;;;;;;;;;6.09;95.17;100932.19;1831954;77;20292;-42
2021/01/23 12:42:55;;;;;;;;;;;;;;;6.05;95.44;100943.00;1839077;77;20441;-41
2021/01/23 12:45:24;;;;;;;;;;;;;;;6.01;95.79;100933.44;1833845;77;20146;-41
2021/01/23 12:47:52;;;;;;;;;;;;;;;5.96;95.99;100934.73;1831384;77;20346;-42
2021/01/23 12:50:20;;;;;;;;;;;;;;;5.91;96.22;100940.31;1830502;77;20268;-41
2021/01/23 12:52:48;;;;;;;;;;;;;;;5.89;96.56;100942.05;1829257;77;20283;-42
2021/01/23 12:55:16;;;;;;;;;;;;;;;5.85;96.74;100937.64;1835956;77;20318;-41
2021/01/23 12:57:44;;;;;;;;;;;;;;;5.81;96.98;100933.72;1833969;77;20149;-40
2021/01/23 13:00:14;;;;;;;;;;;;;;;5.78;97.30;100939.76;1842316;77;20605;-43
2021/01/23 13:02:41;;;;;;;;;;;;;;;5.76;97.42;100936.73;1833895;77;20190;-42
2021/01/23 13:05:13;;;;;;;;;;;;;;;5.72;97.51;100932.34;1849797;77;20205;-43